Time;durP1;ratioP1;P1;durP2;ratioP2;P2;SDS_P1;SDS_P2;PMS_P1;PMS_P2;Temp;Humidity;BMP_temperature;BMP_pressure;BME280_temperature;BME280_humidity;BME280_pressure;Samples;Min_cycle;Max_cycle;Signal;HPM_P1;HPM_P2
2024/02/25 00:01:58;;;;;;;;;;;5.40;99.90;;;;;;4948675;28;20443;-80
2024/02/25 00:04:44;;;;;;;;;;;5.30;99.90;;;;;;4940136;28;19922;-80
2024/02/25 00:07:15;;;;;;;;;;;5.20;99.90;;;;;;4936400;28;19956;-82
2024/02/25 00:09:41;;;;;;;;;;;5.30;99.90;;;;;;4941182;28;20402;-80
2024/02/25 00:12:24;;;;;;;;;;;;;;;;;;;;;
2024/02/25 00:14:50;;;;;;;;;;;5.20;99.90;;;;;;4967264;28;19914;-80
2024/02/25 00:17:36;;;;;;;;;;;5.40;99.90;;;;;;4948534;28;19924;-80
2024/02/25 00:20:10;;;;;;;;;;;5.30;99.90;;;;;;4968895;28;20004;-80
2024/02/25 00:22:54;;;;;;;;;;;5.30;99.90;;;;;;4956986;28;19922;-81
2024/02/25 00:25:22;;;;;;;;;;;5.40;99.90;;;;;;4985842;28;19922;-81
2024/02/25 00:27:48;;;;;;;;;;;5.30;99.90;;;;;;4969145;28;19917;-80
2024/02/25 00:30:19;;;;;;;;;;;5.50;99.90;;;;;;4951276;28;19929;-80
2024/02/25 00:32:45;;;;;;;;;;;5.30;99.90;;;;;;4966962;28;19918;-80
2024/02/25 00:35:14;;;;;;;;;;;5.40;99.90;;;;;;4965593;28;19925;-80
2024/02/25 00:37:59;;;;;;;;;;;5.40;99.90;;;;;;4952149;28;19929;-80
2024/02/25 00:40:32;;;;;;;;;;;5.50;99.90;;;;;;4964942;28;20315;-80
2024/02/25 00:43:18;;;;;;;;;;;5.40;99.90;;;;;;4966886;28;20342;-80
2024/02/25 00:46:06;;;;;;;;;;;5.60;99.90;;;;;;4966016;28;19914;-80
2024/02/25 00:48:34;;;;;;;;;;;5.50;99.90;;;;;;4983258;28;20307;-80
2024/02/25 00:51:02;;;;;;;;;;;5.50;99.90;;;;;;4946688;28;19922;-80
2024/02/25 00:53:51;;;;;;;;;;;5.50;99.90;;;;;;4966566;28;19992;-80
2024/02/25 00:56:20;;;;;;;;;;;5.50;99.90;;;;;;4966812;28;19944;-80
2024/02/25 00:58:47;;;;;;;;;;;5.50;99.90;;;;;;4966376;28;19977;-80
2024/02/25 01:01:28;;;;;;;;;;;;;;;;;;;;;
2024/02/25 01:06:48;;;;;;;;;;;5.60;99.90;;;;;;5440479;23;19941;-80
2024/02/25 01:09:41;;;;;;;;;;;5.70;99.90;;;;;;4982925;28;20401;-81
2024/02/25 01:12:08;;;;;;;;;;;5.70;99.90;;;;;;4967027;28;19925;-80
2024/02/25 01:14:41;;;;;;;;;;;5.70;99.90;;;;;;4974367;28;19913;-80
2024/02/25 01:17:14;;;;;;;;;;;5.70;99.90;;;;;;4987821;28;20338;-80
2024/02/25 01:19:44;;;;;;;;;;;5.60;99.90;;;;;;4988161;28;19941;-80
2024/02/25 01:22:18;;;;;;;;;;;5.60;99.90;;;;;;4986305;28;19922;-80
2024/02/25 01:24:49;;;;;;;;;;;5.60;99.90;;;;;;4987317;28;19913;-81
2024/02/25 01:30:14;;;;;;;;;;;5.60;99.90;;;;;;4985967;28;20004;-80
2024/02/25 01:32:48;;;;;;;;;;;5.60;99.90;;;;;;4972655;28;19925;-79
2024/02/25 01:35:15;;;;;;;;;;;5.60;99.90;;;;;;4968375;28;19914;-80
2024/02/25 01:37:43;;;;;;;;;;;5.50;99.90;;;;;;4984017;28;20277;-79
2024/02/25 01:40:11;;;;;;;;;;;5.50;99.90;;;;;;4968167;28;19921;-79
2024/02/25 01:42:45;;;;;;;;;;;5.50;99.90;;;;;;5000624;28;20342;-79
2024/02/25 01:45:19;;;;;;;;;;;5.50;99.90;;;;;;4965779;28;19917;-80
2024/02/25 01:47:49;;;;;;;;;;;5.50;99.90;;;;;;4970964;28;19920;-80
2024/02/25 01:50:17;;;;;;;;;;;5.50;99.90;;;;;;4970080;28;19928;-80
2024/02/25 01:53:05;;;;;;;;;;;5.30;99.90;;;;;;4966976;28;20261;-81
2024/02/25 01:55:38;;;;;;;;;;;5.40;99.90;;;;;;4967471;28;19956;-80
2024/02/25 01:58:08;;;;;;;;;;;5.30;99.90;;;;;;4975512;28;19921;-80
2024/02/25 02:00:37;;;;;;;;;;;5.30;99.90;;;;;;4986231;28;19918;-80
2024/02/25 02:03:32;;;;;;;;;;;5.30;99.90;;;;;;4988677;28;19952;-80
2024/02/25 02:05:59;;;;;;;;;;;5.20;99.90;;;;;;4965678;28;19921;-80
2024/02/25 02:08:47;;;;;;;;;;;5.10;99.90;;;;;;4967253;28;20251;-80
2024/02/25 02:11:18;;;;;;;;;;;5.20;99.90;;;;;;4952365;28;19925;-80
2024/02/25 02:13:52;;;;;;;;;;;5.20;99.90;;;;;;5107184;23;19909;-80
2024/02/25 02:16:24;;;;;;;;;;;5.30;99.90;;;;;;4987818;28;19948;-81
2024/02/25 02:18:52;;;;;;;;;;;5.30;99.90;;;;;;4975858;28;19914;-80
2024/02/25 02:21:19;;;;;;;;;;;5.30;99.90;;;;;;4996974;28;19913;-80
2024/02/25 02:23:46;;;;;;;;;;;5.20;99.90;;;;;;4988821;28;19961;-80
2024/02/25 02:26:16;;;;;;;;;;;5.10;99.90;;;;;;4978486;28;19937;-80
2024/02/25 02:28:43;;;;;;;;;;;5.20;99.90;;;;;;4979211;28;19972;-80
2024/02/25 02:31:13;;;;;;;;;;;5.20;99.90;;;;;;4961200;28;20083;-80
2024/02/25 02:33:55;;;;;;;;;;;5.10;99.90;;;;;;4978493;28;19961;-80
2024/02/25 02:36:24;;;;;;;;;;;5.00;99.90;;;;;;4981757;28;19921;-81
2024/02/25 02:38:55;;;;;;;;;;;5.10;99.90;;;;;;4996726;28;19918;-81
2024/02/25 02:41:25;;;;;;;;;;;5.00;99.90;;;;;;4959606;28;19913;-81
2024/02/25 02:43:55;;;;;;;;;;;5.10;99.90;;;;;;4985105;28;19980;-81
2024/02/25 02:46:29;;;;;;;;;;;5.10;99.90;;;;;;4980137;28;19922;-81
2024/02/25 02:49:17;;;;;;;;;;;5.00;99.90;;;;;;4943242;28;19918;-81
2024/02/25 02:51:44;;;;;;;;;;;5.10;99.90;;;;;;4948890;28;19953;-80
2024/02/25 02:54:11;;;;;;;;;;;5.10;99.90;;;;;;4949190;28;19928;-81
2024/02/25 02:56:41;;;;;;;;;;;5.00;99.90;;;;;;4966090;28;19969;-81
2024/02/25 02:59:16;;;;;;;;;;;5.10;99.90;;;;;;4966200;28;19926;-81
2024/02/25 03:01:57;;;;;;;;;;;5.00;99.90;;;;;;4967047;28;20017;-81
2024/02/25 03:04:41;;;;;;;;;;;5.10;99.90;;;;;;4964277;28;19933;-81
2024/02/25 03:07:17;;;;;;;;;;;5.10;99.90;;;;;;4970865;28;19914;-81
2024/02/25 03:09:52;;;;;;;;;;;5.00;99.90;;;;;;4986008;28;20001;-81
2024/02/25 03:12:32;;;;;;;;;;;;;;;;;;;;;
2024/02/25 03:15:19;;;;;;;;;;;5.10;99.90;;;;;;4988336;28;19913;-81
2024/02/25 03:17:54;;;;;;;;;;;5.10;99.90;;;;;;4984563;28;20393;-81
2024/02/25 03:20:30;;;;;;;;;;;5.10;99.90;;;;;;4979295;28;20326;-81
2024/02/25 03:23:24;;;;;;;;;;;5.10;99.90;;;;;;4955204;28;19936;-81
2024/02/25 03:25:50;;;;;;;;;;;5.00;99.90;;;;;;4982531;28;19976;-81
2024/02/25 03:31:39;;;;;;;;;;;5.10;99.90;;;;;;4983121;28;19943;-81
2024/02/25 03:34:29;;;;;;;;;;;5.00;99.90;;;;;;4985274;28;20353;-80
2024/02/25 03:37:02;;;;;;;;;;;5.20;99.90;;;;;;4985789;28;19925;-81
2024/02/25 03:39:29;;;;;;;;;;;5.10;99.90;;;;;;4991933;28;19921;-81
2024/02/25 03:42:06;;;;;;;;;;;;;;;;;;;;;
2024/02/25 03:45:02;;;;;;;;;;;5.10;99.90;;;;;;4990324;28;19913;-81
2024/02/25 03:47:40;;;;;;;;;;;5.10;99.90;;;;;;4977522;28;19914;-81
2024/02/25 03:50:27;;;;;;;;;;;5.10;99.90;;;;;;5008540;28;19918;-81
2024/02/25 03:52:57;;;;;;;;;;;5.10;99.90;;;;;;5001782;28;20023;-81
2024/02/25 03:55:33;;;;;;;;;;;5.10;99.90;;;;;;4988159;28;19921;-80
2024/02/25 03:58:06;;;;;;;;;;;5.10;99.90;;;;;;4937601;28;19914;-81
2024/02/25 04:00:39;;;;;;;;;;;5.10;99.90;;;;;;4947822;28;20040;-81
2024/02/25 04:03:13;;;;;;;;;;;5.10;99.90;;;;;;4954757;28;19977;-81
2024/02/25 04:05:58;;;;;;;;;;;5.10;99.90;;;;;;4935029;28;19914;-81
2024/02/25 04:08:44;;;;;;;;;;;;;;;;;;;;;
2024/02/25 04:11:31;;;;;;;;;;;5.10;99.90;;;;;;4989965;28;19976;-80
2024/02/25 04:14:23;;;;;;;;;;;5.10;99.90;;;;;;4968607;28;19926;-81
2024/02/25 04:16:54;;;;;;;;;;;5.00;99.90;;;;;;4967586;28;19922;-81
2024/02/25 04:19:32;;;;;;;;;;;5.00;99.90;;;;;;4935566;28;19929;-80
2024/02/25 04:22:09;;;;;;;;;;;;;;;;;;;;;
2024/02/25 04:24:37;;;;;;;;;;;5.00;99.90;;;;;;4979318;28;19960;-81
2024/02/25 04:27:06;;;;;;;;;;;4.90;99.90;;;;;;5002519;28;19918;-81
2024/02/25 04:30:02;;;;;;;;;;;5.00;99.90;;;;;;4969642;28;19925;-81
2024/02/25 04:32:53;;;;;;;;;;;5.00;99.90;;;;;;4963479;28;19985;-81
2024/02/25 04:35:23;;;;;;;;;;;5.10;99.90;;;;;;4973217;28;19960;-81
2024/02/25 04:37:54;;;;;;;;;;;5.00;99.90;;;;;;4951509;28;19914;-81
2024/02/25 04:40:29;;;;;;;;;;;5.10;99.90;;;;;;4981120;28;19973;-81
2024/02/25 04:43:16;;;;;;;;;;;5.00;99.90;;;;;;4965634;28;19989;-81
2024/02/25 04:46:08;;;;;;;;;;;5.00;99.90;;;;;;4982161;28;19949;-81
2024/02/25 04:48:47;;;;;;;;;;;5.10;99.90;;;;;;4955376;28;20013;-81
2024/02/25 04:51:16;;;;;;;;;;;4.90;99.90;;;;;;4932885;29;19918;-81
2024/02/25 04:53:45;;;;;;;;;;;5.10;99.90;;;;;;4916445;29;20315;-81
2024/02/25 04:56:28;;;;;;;;;;;5.00;99.90;;;;;;4919144;28;20327;-81
2024/02/25 04:58:56;;;;;;;;;;;5.10;99.90;;;;;;4937065;28;19923;-81
2024/02/25 05:01:23;;;;;;;;;;;5.20;99.90;;;;;;4950044;28;20359;-81
2024/02/25 05:03:50;;;;;;;;;;;5.10;99.90;;;;;;4982614;28;19946;-81
2024/02/25 05:06:32;;;;;;;;;;;5.20;99.90;;;;;;4968783;28;19914;-81
2024/02/25 05:09:07;;;;;;;;;;;5.20;99.90;;;;;;4957286;28;20010;-80
2024/02/25 05:11:35;;;;;;;;;;;5.20;99.90;;;;;;4928869;29;19923;-81
2024/02/25 05:14:02;;;;;;;;;;;5.20;99.90;;;;;;4933231;28;20318;-81
2024/02/25 05:16:40;;;;;;;;;;;5.30;99.90;;;;;;4950261;28;19914;-80
2024/02/25 05:19:08;;;;;;;;;;;5.20;99.90;;;;;;4936772;28;19918;-80
2024/02/25 05:21:49;;;;;;;;;;;5.20;99.90;;;;;;4933247;28;20012;-81
2024/02/25 05:24:21;;;;;;;;;;;5.20;99.90;;;;;;4966314;28;19918;-81
2024/02/25 05:26:57;;;;;;;;;;;5.20;99.90;;;;;;4951625;28;19914;-81
2024/02/25 05:29:30;;;;;;;;;;;5.10;99.90;;;;;;4966452;28;19929;-81
2024/02/25 05:32:10;;;;;;;;;;;5.20;99.90;;;;;;4953760;28;19918;-81
2024/02/25 05:34:40;;;;;;;;;;;5.20;99.90;;;;;;4949459;28;19993;-81
2024/02/25 05:38:10;;;;;;;;;;;5.30;99.90;;;;;;4949860;28;19922;-81
2024/02/25 05:40:25;;;;;;;;;;;5.20;99.90;;;;;;4951583;28;20004;-81
2024/02/25 05:42:55;;;;;;;;;;;5.30;99.90;;;;;;4967295;28;19914;-81
2024/02/25 05:45:25;;;;;;;;;;;5.30;99.90;;;;;;4940291;28;19981;-81
2024/02/25 05:47:58;;;;;;;;;;;5.30;99.90;;;;;;4937207;28;19918;-80
2024/02/25 05:50:35;;;;;;;;;;;5.30;99.90;;;;;;4969810;28;19957;-81
2024/02/25 05:53:02;;;;;;;;;;;5.30;99.90;;;;;;4968995;28;19917;-81
2024/02/25 05:55:35;;;;;;;;;;;5.30;99.90;;;;;;4937834;28;19941;-81
2024/02/25 05:58:33;;;;;;;;;;;5.30;99.90;;;;;;4946529;28;19921;-81
2024/02/25 06:01:10;;;;;;;;;;;5.30;99.90;;;;;;4955124;28;19918;-81
2024/02/25 06:03:40;;;;;;;;;;;5.20;99.90;;;;;;4963623;28;20266;-81
2024/02/25 06:06:07;;;;;;;;;;;5.30;99.90;;;;;;4956998;28;20008;-81
2024/02/25 06:08:37;;;;;;;;;;;5.30;99.90;;;;;;4969107;28;19918;-81
2024/02/25 06:11:07;;;;;;;;;;;5.30;99.90;;;;;;4967500;29;19923;-81
2024/02/25 06:13:41;;;;;;;;;;;5.30;99.90;;;;;;4961553;28;19933;-81
2024/02/25 06:16:10;;;;;;;;;;;5.20;99.90;;;;;;4989001;28;20433;-82
2024/02/25 06:18:48;;;;;;;;;;;5.30;99.90;;;;;;4963756;28;19918;-82
2024/02/25 06:21:24;;;;;;;;;;;5.30;99.90;;;;;;4967371;28;19992;-82
2024/02/25 06:23:51;;;;;;;;;;;5.40;99.90;;;;;;4975671;28;19964;-81
2024/02/25 06:26:24;;;;;;;;;;;5.30;99.90;;;;;;4959113;28;19914;-81
2024/02/25 06:28:55;;;;;;;;;;;5.30;99.90;;;;;;4953179;28;19949;-82
2024/02/25 06:31:31;;;;;;;;;;;5.30;99.90;;;;;;4953669;28;19972;-81
2024/02/25 06:33:59;;;;;;;;;;;5.40;99.90;;;;;;4989495;28;19914;-82
2024/02/25 06:36:26;;;;;;;;;;;5.40;99.90;;;;;;4954940;28;20279;-81
2024/02/25 06:39:03;;;;;;;;;;;5.40;99.90;;;;;;4972556;28;19929;-81
2024/02/25 06:42:05;;;;;;;;;;;5.40;99.90;;;;;;4957736;28;20349;-80
2024/02/25 06:44:47;;;;;;;;;;;5.40;99.90;;;;;;4957686;28;19918;-81
2024/02/25 06:47:26;;;;;;;;;;;5.40;99.90;;;;;;4951975;28;19933;-81
2024/02/25 06:49:54;;;;;;;;;;;5.40;99.90;;;;;;4962648;28;19914;-81
2024/02/25 06:52:23;;;;;;;;;;;5.50;99.90;;;;;;4978584;28;20001;-80
2024/02/25 06:54:52;;;;;;;;;;;5.50;99.90;;;;;;4985423;28;19925;-81
2024/02/25 06:57:26;;;;;;;;;;;5.40;99.90;;;;;;4969291;28;19913;-80
2024/02/25 06:59:57;;;;;;;;;;;5.50;99.90;;;;;;4971966;28;19914;-81
2024/02/25 07:02:38;;;;;;;;;;;5.50;99.90;;;;;;4953006;28;19914;-81
2024/02/25 07:05:08;;;;;;;;;;;5.60;99.90;;;;;;4989687;28;19953;-81
2024/02/25 07:07:38;;;;;;;;;;;5.60;99.90;;;;;;4976778;28;19933;-81
2024/02/25 07:10:08;;;;;;;;;;;5.70;99.90;;;;;;4963443;28;19907;-81
2024/02/25 07:12:39;;;;;;;;;;;5.70;99.90;;;;;;4959524;28;19930;-81
2024/02/25 07:15:10;;;;;;;;;;;5.60;99.90;;;;;;4986422;28;19914;-81
2024/02/25 07:17:41;;;;;;;;;;;5.70;99.90;;;;;;4987009;28;19917;-81
2024/02/25 07:20:11;;;;;;;;;;;5.70;99.90;;;;;;5007540;28;19914;-82
2024/02/25 07:23:01;;;;;;;;;;;5.70;99.90;;;;;;4980810;28;19914;-81
2024/02/25 07:25:48;;;;;;;;;;;5.70;99.90;;;;;;4981111;28;19925;-81
2024/02/25 07:28:34;;;;;;;;;;;5.60;99.90;;;;;;4975878;28;19914;-81
2024/02/25 07:31:01;;;;;;;;;;;5.70;99.90;;;;;;4999259;28;20349;-79
2024/02/25 07:33:28;;;;;;;;;;;5.70;99.90;;;;;;4971486;28;19918;-80
2024/02/25 07:35:55;;;;;;;;;;;5.60;99.90;;;;;;4987655;28;19981;-80
2024/02/25 07:38:25;;;;;;;;;;;5.60;99.90;;;;;;4981655;28;19924;-81
2024/02/25 07:40:53;;;;;;;;;;;5.60;99.90;;;;;;4991522;28;19918;-81
2024/02/25 07:43:23;;;;;;;;;;;5.70;99.90;;;;;;5009368;28;19924;-80
2024/02/25 07:45:57;;;;;;;;;;;5.70;99.90;;;;;;4978976;28;19952;-80
2024/02/25 07:48:31;;;;;;;;;;;5.60;99.90;;;;;;5002306;28;19967;-81
2024/02/25 07:51:03;;;;;;;;;;;5.70;99.90;;;;;;4973618;28;19936;-81
2024/02/25 07:53:30;;;;;;;;;;;5.70;99.90;;;;;;4975880;28;19945;-82
2024/02/25 07:55:57;;;;;;;;;;;5.70;99.90;;;;;;5001203;28;20009;-80
2024/02/25 07:58:24;;;;;;;;;;;5.70;99.90;;;;;;4944327;28;19918;-80
2024/02/25 08:00:51;;;;;;;;;;;5.80;99.90;;;;;;5014141;28;19924;-82
2024/02/25 08:03:18;;;;;;;;;;;5.80;99.90;;;;;;4985948;28;20008;-81
2024/02/25 08:05:46;;;;;;;;;;;5.80;99.90;;;;;;4968192;28;20294;-80
2024/02/25 08:08:13;;;;;;;;;;;5.80;99.90;;;;;;5005595;28;19932;-81
2024/02/25 08:10:40;;;;;;;;;;;5.80;99.90;;;;;;4994440;28;19979;-80
2024/02/25 08:13:06;;;;;;;;;;;5.80;99.90;;;;;;5002728;28;20258;-80
2024/02/25 08:15:33;;;;;;;;;;;5.80;99.90;;;;;;4979500;28;19921;-80
2024/02/25 08:18:03;;;;;;;;;;;5.80;99.90;;;;;;4968343;28;19914;-79
2024/02/25 08:20:30;;;;;;;;;;;5.90;99.90;;;;;;4964965;28;19940;-81
2024/02/25 08:22:56;;;;;;;;;;;5.80;99.90;;;;;;4964814;28;19913;-79
2024/02/25 08:25:23;;;;;;;;;;;5.90;99.90;;;;;;5015080;28;19918;-80
2024/02/25 08:27:49;;;;;;;;;;;5.90;99.90;;;;;;4984164;28;19922;-80
2024/02/25 08:30:15;;;;;;;;;;;5.90;99.90;;;;;;4963421;28;19922;-80
2024/02/25 08:32:41;;;;;;;;;;;5.90;99.90;;;;;;4992522;28;19914;-80
2024/02/25 08:35:08;;;;;;;;;;;6.10;99.90;;;;;;4985049;28;19973;-80
2024/02/25 08:37:35;;;;;;;;;;;6.20;99.90;;;;;;4998742;28;20011;-80
2024/02/25 08:40:02;;;;;;;;;;;6.10;99.90;;;;;;4947909;28;19922;-80
2024/02/25 08:42:29;;;;;;;;;;;6.10;99.90;;;;;;4983686;28;19945;-80
2024/02/25 08:44:57;;;;;;;;;;;6.10;99.90;;;;;;4950085;28;19925;-80
2024/02/25 08:47:25;;;;;;;;;;;6.20;99.90;;;;;;5017223;28;20335;-80
2024/02/25 08:49:52;;;;;;;;;;;6.30;99.90;;;;;;5014199;28;20568;-80
2024/02/25 08:52:20;;;;;;;;;;;6.30;99.90;;;;;;5015844;28;20323;-80
2024/02/25 08:54:53;;;;;;;;;;;6.40;99.90;;;;;;4999023;28;19914;-80
2024/02/25 08:57:20;;;;;;;;;;;6.50;99.90;;;;;;4985896;28;19913;-80
2024/02/25 08:59:48;;;;;;;;;;;6.50;99.90;;;;;;4971232;28;19968;-80
2024/02/25 09:02:14;;;;;;;;;;;6.50;99.90;;;;;;4984085;28;20335;-80
2024/02/25 09:04:40;;;;;;;;;;;6.50;99.90;;;;;;4991267;28;19921;-80
2024/02/25 09:07:06;;;;;;;;;;;6.60;99.90;;;;;;4980523;28;19973;-80
2024/02/25 09:09:34;;;;;;;;;;;6.70;99.90;;;;;;4980484;28;19953;-80
2024/02/25 09:12:03;;;;;;;;;;;6.70;99.90;;;;;;4994137;28;19922;-80
2024/02/25 09:14:30;;;;;;;;;;;6.70;99.90;;;;;;4942989;29;19958;-80
2024/02/25 09:16:57;;;;;;;;;;;6.80;99.90;;;;;;4943175;29;19918;-80
2024/02/25 09:19:23;;;;;;;;;;;6.80;99.90;;;;;;4957428;28;19973;-80
2024/02/25 09:21:50;;;;;;;;;;;6.80;99.90;;;;;;4959705;28;19958;-80
2024/02/25 09:24:17;;;;;;;;;;;6.80;99.90;;;;;;4925997;29;20350;-80
2024/02/25 09:26:46;;;;;;;;;;;6.90;99.90;;;;;;4975835;28;19921;-80
2024/02/25 09:29:12;;;;;;;;;;;6.90;99.90;;;;;;4978571;28;20447;-80
2024/02/25 09:31:41;;;;;;;;;;;6.90;99.90;;;;;;4979728;28;19918;-80
2024/02/25 09:34:14;;;;;;;;;;;6.90;99.90;;;;;;4949123;28;20278;-80
2024/02/25 09:36:45;;;;;;;;;;;6.90;99.90;;;;;;4977678;28;20608;-80
2024/02/25 09:39:12;;;;;;;;;;;6.90;99.90;;;;;;4952272;28;19988;-80
2024/02/25 09:41:42;;;;;;;;;;;7.00;99.90;;;;;;4962468;28;19918;-80
2024/02/25 09:44:28;;;;;;;;;;;7.00;99.90;;;;;;4976129;28;20152;-80
2024/02/25 09:46:56;;;;;;;;;;;7.10;99.90;;;;;;4967899;28;19914;-80
2024/02/25 09:49:31;;;;;;;;;;;7.10;99.90;;;;;;4943683;28;19978;-80
2024/02/25 09:51:59;;;;;;;;;;;7.00;99.90;;;;;;4968790;28;19922;-81
2024/02/25 09:54:27;;;;;;;;;;;7.10;99.90;;;;;;4952692;29;19986;-81
2024/02/25 09:57:14;;;;;;;;;;;7.20;99.90;;;;;;4957688;29;19941;-81
2024/02/25 09:59:46;;;;;;;;;;;7.20;99.90;;;;;;4970688;29;19915;-82
2024/02/25 10:02:13;;;;;;;;;;;7.10;99.90;;;;;;4970497;28;20055;-81
2024/02/25 10:04:42;;;;;;;;;;;7.20;99.90;;;;;;4930328;28;19914;-81
2024/02/25 10:07:12;;;;;;;;;;;7.20;99.90;;;;;;4942894;28;19938;-81
2024/02/25 10:09:39;;;;;;;;;;;7.20;99.90;;;;;;4976346;28;19918;-80
2024/02/25 10:12:07;;;;;;;;;;;7.20;99.90;;;;;;4966408;28;19922;-80
2024/02/25 10:14:34;;;;;;;;;;;7.30;99.90;;;;;;4980147;28;19918;-81
2024/02/25 10:17:02;;;;;;;;;;;7.30;99.90;;;;;;4996404;28;19918;-81
2024/02/25 10:19:30;;;;;;;;;;;7.30;99.90;;;;;;5014044;28;19918;-79
2024/02/25 10:22:11;;;;;;;;;;;7.40;99.90;;;;;;4996527;28;19914;-81
2024/02/25 10:24:40;;;;;;;;;;;7.40;99.90;;;;;;4976508;28;19955;-80
2024/02/25 10:27:10;;;;;;;;;;;7.40;99.90;;;;;;4961576;28;19918;-80
2024/02/25 10:29:55;;;;;;;;;;;7.50;99.90;;;;;;4994850;28;19914;-80
2024/02/25 10:32:25;;;;;;;;;;;7.50;99.90;;;;;;4977543;28;20335;-80
2024/02/25 10:34:53;;;;;;;;;;;7.50;99.90;;;;;;4966097;28;19941;-75
2024/02/25 10:37:21;;;;;;;;;;;7.50;99.90;;;;;;4971682;28;19949;-75
2024/02/25 10:39:58;;;;;;;;;;;7.60;99.90;;;;;;4996318;28;19922;-77
2024/02/25 10:42:28;;;;;;;;;;;7.70;99.90;;;;;;4972108;28;20255;-75
2024/02/25 10:44:56;;;;;;;;;;;7.80;99.90;;;;;;4966474;28;20254;-75
2024/02/25 10:47:23;;;;;;;;;;;7.80;99.90;;;;;;4971326;28;20061;-75
2024/02/25 10:49:51;;;;;;;;;;;7.80;99.90;;;;;;4992977;28;20038;-76
2024/02/25 10:52:22;;;;;;;;;;;7.90;99.90;;;;;;4977815;28;19922;-76
2024/02/25 10:54:52;;;;;;;;;;;7.90;99.90;;;;;;4982106;28;19914;-76
2024/02/25 10:57:19;;;;;;;;;;;7.90;99.90;;;;;;4961064;28;19914;-76
2024/02/25 10:59:50;;;;;;;;;;;7.90;99.90;;;;;;4965591;28;19913;-75
2024/02/25 11:02:23;;;;;;;;;;;7.80;99.90;;;;;;4958826;28;20004;-77
2024/02/25 11:04:50;;;;;;;;;;;7.90;99.90;;;;;;4956336;28;19970;-77
2024/02/25 11:07:18;;;;;;;;;;;7.90;99.90;;;;;;4958651;28;19914;-77
2024/02/25 11:09:45;;;;;;;;;;;7.90;99.90;;;;;;5007393;28;20562;-76
2024/02/25 11:12:27;;;;;;;;;;;7.90;99.90;;;;;;4986129;28;19921;-76
2024/02/25 11:15:04;;;;;;;;;;;8.10;99.90;;;;;;4967468;28;20794;-77
2024/02/25 11:17:35;;;;;;;;;;;8.20;99.90;;;;;;4960827;28;20594;-76
2024/02/25 11:20:07;;;;;;;;;;;8.40;99.90;;;;;;4942847;28;20467;-76
2024/02/25 11:22:50;;;;;;;;;;;8.40;99.90;;;;;;4942959;28;19922;-77
2024/02/25 11:25:35;;;;;;;;;;;8.50;99.90;;;;;;4959062;28;20338;-76
2024/02/25 11:28:15;;;;;;;;;;;8.70;99.90;;;;;;4941458;28;19989;-76
2024/02/25 11:30:57;;;;;;;;;;;9.20;99.90;;;;;;4990993;28;19918;-81
2024/02/25 11:33:35;;;;;;;;;;;9.60;99.90;;;;;;4996036;28;19972;-80
2024/02/25 11:36:09;;;;;;;;;;;10.10;99.90;;;;;;4976444;28;19926;-80
2024/02/25 11:41:27;;;;;;;;;;;9.70;99.90;;;;;;5013198;28;19918;-80
2024/02/25 11:43:56;;;;;;;;;;;9.80;99.90;;;;;;4996453;28;19918;-79
2024/02/25 11:46:26;;;;;;;;;;;10.00;99.90;;;;;;4963565;28;19914;-80
2024/02/25 11:48:56;;;;;;;;;;;10.30;99.90;;;;;;4976875;28;19918;-79
2024/02/25 11:51:24;;;;;;;;;;;10.50;99.90;;;;;;4966258;28;20012;-79
2024/02/25 11:53:53;;;;;;;;;;;10.60;99.90;;;;;;4980360;28;19914;-79
2024/02/25 11:56:22;;;;;;;;;;;10.70;99.90;;;;;;4983301;28;19950;-79
2024/02/25 11:58:50;;;;;;;;;;;10.80;99.90;;;;;;4956391;28;19926;-80
2024/02/25 12:01:16;;;;;;;;;;;10.60;99.90;;;;;;4996062;28;19972;-80
2024/02/25 12:03:45;;;;;;;;;;;10.30;99.90;;;;;;5157857;23;19945;-77
2024/02/25 12:06:10;;;;;;;;;;;10.10;99.90;;;;;;4952404;28;19924;-79
2024/02/25 12:08:36;;;;;;;;;;;9.60;99.90;;;;;;4943672;28;19918;-78
2024/02/25 12:11:02;;;;;;;;;;;9.60;99.90;;;;;;4944234;28;19964;-78
2024/02/25 12:13:28;;;;;;;;;;;9.40;99.90;;;;;;4962860;28;19928;-78
2024/02/25 12:16:12;;;;;;;;;;;9.20;99.90;;;;;;4978060;28;20234;-79
2024/02/25 12:18:38;;;;;;;;;;;9.20;99.90;;;;;;4967729;28;19981;-78
2024/02/25 12:21:09;;;;;;;;;;;9.10;99.90;;;;;;4950318;28;19921;-77
2024/02/25 12:23:42;;;;;;;;;;;8.80;99.90;;;;;;4980061;28;19914;-78
2024/02/25 12:26:10;;;;;;;;;;;8.80;99.90;;;;;;4942418;29;20287;-78
2024/02/25 12:28:42;;;;;;;;;;;8.80;99.90;;;;;;4961048;28;19914;-78
2024/02/25 12:31:10;;;;;;;;;;;9.00;99.90;;;;;;4963576;28;19924;-79
2024/02/25 12:33:41;;;;;;;;;;;9.00;99.90;;;;;;4944011;29;19918;-78
2024/02/25 12:36:07;;;;;;;;;;;9.00;99.90;;;;;;4959373;28;19914;-78
2024/02/25 12:38:36;;;;;;;;;;;9.10;99.90;;;;;;4960867;28;19918;-79
2024/02/25 12:41:07;;;;;;;;;;;9.20;99.90;;;;;;4963346;28;19918;-79
2024/02/25 12:43:32;;;;;;;;;;;9.90;99.90;;;;;;4935589;28;19918;-79
2024/02/25 12:45:58;;;;;;;;;;;10.20;99.90;;;;;;4939628;28;20386;-78
2024/02/25 12:48:24;;;;;;;;;;;9.90;99.90;;;;;;4927362;29;19922;-77
2024/02/25 12:50:52;;;;;;;;;;;9.50;99.90;;;;;;4943327;28;19922;-78
2024/02/25 12:53:18;;;;;;;;;;;9.50;99.90;;;;;;4959683;28;19928;-78
2024/02/25 12:55:43;;;;;;;;;;;9.40;99.90;;;;;;4958779;28;20598;-78
2024/02/25 12:58:09;;;;;;;;;;;9.30;99.90;;;;;;4972401;28;19917;-79
2024/02/25 13:00:35;;;;;;;;;;;9.30;99.90;;;;;;4924639;29;19918;-78
2024/02/25 13:03:01;;;;;;;;;;;9.80;99.90;;;;;;4929407;28;19925;-78
2024/02/25 13:05:26;;;;;;;;;;;9.60;99.90;;;;;;4962305;28;20012;-79
2024/02/25 13:07:52;;;;;;;;;;;9.70;99.90;;;;;;4962566;28;19932;-79
2024/02/25 13:10:18;;;;;;;;;;;10.00;99.90;;;;;;4989503;28;19921;-80
2024/02/25 13:12:45;;;;;;;;;;;10.60;99.90;;;;;;4947858;28;19914;-80
2024/02/25 13:15:11;;;;;;;;;;;10.30;99.90;;;;;;4979201;28;20005;-80
2024/02/25 13:17:37;;;;;;;;;;;10.10;99.90;;;;;;4979069;28;20445;-79
2024/02/25 13:20:04;;;;;;;;;;;9.90;99.90;;;;;;4969200;28;19914;-79
2024/02/25 13:22:29;;;;;;;;;;;10.00;99.90;;;;;;4959675;28;19914;-80
2024/02/25 13:24:55;;;;;;;;;;;9.80;99.90;;;;;;4963366;28;19961;-79
2024/02/25 13:27:21;;;;;;;;;;;9.70;99.90;;;;;;4962698;28;20732;-79
2024/02/25 13:29:48;;;;;;;;;;;9.50;99.90;;;;;;4978333;28;19924;-79
2024/02/25 13:32:16;;;;;;;;;;;9.40;99.90;;;;;;4962301;28;19932;-79
2024/02/25 13:34:41;;;;;;;;;;;9.20;99.90;;;;;;4978656;28;20001;-79
2024/02/25 13:37:07;;;;;;;;;;;9.30;99.90;;;;;;4961603;28;20021;-80
2024/02/25 13:39:32;;;;;;;;;;;9.30;99.90;;;;;;4980735;28;19944;-79
2024/02/25 13:41:58;;;;;;;;;;;9.50;99.90;;;;;;4979371;28;19918;-79
2024/02/25 13:44:24;;;;;;;;;;;9.60;99.90;;;;;;4963612;28;19922;-80
2024/02/25 13:46:50;;;;;;;;;;;9.60;99.90;;;;;;4962439;28;19918;-79
2024/02/25 13:49:16;;;;;;;;;;;9.60;99.90;;;;;;4994457;28;20950;-79
2024/02/25 13:51:43;;;;;;;;;;;9.50;99.90;;;;;;4976926;28;19983;-79
2024/02/25 13:54:09;;;;;;;;;;;9.50;99.90;;;;;;4981720;28;19941;-79
2024/02/25 13:56:35;;;;;;;;;;;9.30;99.90;;;;;;4963043;28;19918;-79
2024/02/25 13:59:00;;;;;;;;;;;9.20;99.90;;;;;;4946787;28;19914;-79
2024/02/25 14:01:26;;;;;;;;;;;9.10;99.90;;;;;;4961951;28;20055;-79
2024/02/25 14:03:52;;;;;;;;;;;9.10;99.90;;;;;;4972296;28;19941;-79
2024/02/25 14:06:19;;;;;;;;;;;9.10;99.90;;;;;;4997003;28;20474;-78
2024/02/25 14:08:45;;;;;;;;;;;9.10;99.90;;;;;;4997744;28;19922;-79
2024/02/25 14:11:11;;;;;;;;;;;9.00;99.90;;;;;;4968207;28;20108;-80
2024/02/25 14:13:37;;;;;;;;;;;9.10;99.90;;;;;;4978110;28;19913;-79
2024/02/25 14:16:04;;;;;;;;;;;9.10;99.90;;;;;;4984232;28;19914;-80
2024/02/25 14:18:29;;;;;;;;;;;9.00;99.90;;;;;;4978289;28;20520;-80
2024/02/25 14:20:56;;;;;;;;;;;9.00;99.90;;;;;;4993864;28;19983;-79
2024/02/25 14:23:22;;;;;;;;;;;9.00;99.90;;;;;;4980805;28;20353;-79
2024/02/25 14:25:48;;;;;;;;;;;9.00;99.90;;;;;;4970350;28;19928;-80
2024/02/25 14:28:14;;;;;;;;;;;8.90;99.90;;;;;;4972963;28;20341;-80
2024/02/25 14:30:40;;;;;;;;;;;8.90;99.90;;;;;;4950689;28;19950;-80
2024/02/25 14:33:08;;;;;;;;;;;9.00;99.90;;;;;;4971650;28;19953;-79
2024/02/25 14:35:35;;;;;;;;;;;8.90;99.90;;;;;;4985458;28;20361;-79
2024/02/25 14:38:02;;;;;;;;;;;8.90;99.90;;;;;;4977168;28;19918;-79
2024/02/25 14:40:28;;;;;;;;;;;8.90;99.90;;;;;;4991275;28;19924;-79
2024/02/25 14:42:54;;;;;;;;;;;8.90;99.90;;;;;;4996945;28;20519;-79
2024/02/25 14:45:20;;;;;;;;;;;8.80;99.90;;;;;;4997299;28;19917;-79
2024/02/25 14:47:45;;;;;;;;;;;8.80;99.90;;;;;;4947113;28;19918;-79
2024/02/25 14:50:11;;;;;;;;;;;8.80;99.90;;;;;;4977669;28;19922;-80
2024/02/25 14:52:37;;;;;;;;;;;8.80;99.90;;;;;;4981031;28;20038;-79
2024/02/25 14:55:07;;;;;;;;;;;8.80;99.90;;;;;;4963169;28;20001;-79
2024/02/25 14:57:33;;;;;;;;;;;8.80;99.90;;;;;;4977980;28;20005;-79
2024/02/25 14:59:59;;;;;;;;;;;8.80;99.90;;;;;;4962137;28;20634;-80
2024/02/25 15:02:26;;;;;;;;;;;8.80;99.90;;;;;;4964091;28;19932;-80
2024/02/25 15:04:51;;;;;;;;;;;8.80;99.90;;;;;;4960198;28;20338;-79
2024/02/25 15:07:17;;;;;;;;;;;8.80;99.90;;;;;;4959326;28;19929;-79
2024/02/25 15:09:43;;;;;;;;;;;8.90;99.90;;;;;;4922235;29;19929;-79
2024/02/25 15:12:08;;;;;;;;;;;8.90;99.90;;;;;;4934805;28;19922;-79
2024/02/25 15:14:34;;;;;;;;;;;8.90;99.90;;;;;;4972000;28;20005;-79